createdAt,value
2022-12-14T00:00:46.786Z,97791.72
2022-12-14T00:03:24.237Z,97783.07
2022-12-14T00:05:56.507Z,97768.58
2022-12-14T00:08:30.107Z,97770.25
2022-12-14T00:11:03.416Z,97761.98
2022-12-14T00:13:37.770Z,97765.91
2022-12-14T00:16:13.251Z,97759.06
2022-12-14T00:18:48.939Z,97753.72
2022-12-14T00:27:21.355Z,97760.02
2022-12-14T00:33:14.171Z,97754.25
2022-12-14T00:35:54.210Z,97741.28
2022-12-14T00:38:33.730Z,97737.03
2022-12-14T00:41:07.405Z,97731.70
2022-12-14T00:43:40.633Z,97732.41
2022-12-14T00:46:13.983Z,97728.99
2022-12-14T00:48:47.810Z,97730.70
2022-12-14T00:51:25.447Z,97749.70
2022-12-14T00:53:58.811Z,97738.39
2022-12-14T00:56:32.332Z,97743.15
2022-12-14T00:59:05.556Z,97730.34
2022-12-14T01:01:39.479Z,97725.69
2022-12-14T01:04:21.690Z,97728.59
2022-12-14T01:06:57.625Z,97743.66
2022-12-14T01:09:31.173Z,97737.34
2022-12-14T01:12:04.363Z,97720.45
2022-12-14T01:14:37.835Z,97711.00
2022-12-14T01:17:11.089Z,97721.91
2022-12-14T01:19:44.559Z,97708.41
2022-12-14T01:22:19.483Z,97707.41
2022-12-14T01:24:52.862Z,97701.55
2022-12-14T01:27:29.083Z,97700.30
2022-12-14T01:30:02.378Z,97699.83
2022-12-14T01:32:37.998Z,97694.07
2022-12-14T01:35:11.998Z,97694.96
2022-12-14T01:37:49.155Z,97694.26
2022-12-14T01:40:26.274Z,97698.75
2022-12-14T01:43:01.557Z,97680.22
2022-12-14T01:45:37.149Z,97678.62
2022-12-14T01:48:14.602Z,97678.23
2022-12-14T01:50:48.781Z,97683.86
2022-12-14T01:56:08.243Z,97675.12
2022-12-14T01:58:41.718Z,97688.05
2022-12-14T02:01:16.772Z,97680.24
2022-12-14T02:03:53.130Z,97677.20
2022-12-14T02:06:30.740Z,97671.70
2022-12-14T02:09:04.294Z,97668.21
2022-12-14T02:11:40.814Z,97665.75
2022-12-14T02:14:13.948Z,97666.36
2022-12-14T02:16:47.560Z,97652.62
2022-12-14T02:19:21.335Z,97652.70
2022-12-14T02:22:10.397Z,97663.87
2022-12-14T02:28:02.380Z,97642.55
2022-12-14T02:30:38.538Z,97649.62
2022-12-14T02:33:18.345Z,97642.86
2022-12-14T02:35:57.904Z,97631.91
2022-12-14T02:38:40.830Z,97630.27
2022-12-14T02:41:17.552Z,97636.30
2022-12-14T02:43:56.697Z,97626.21
2022-12-14T02:46:33.348Z,97625.30
2022-12-14T02:49:09.858Z,97612.42
2022-12-14T02:51:48.897Z,97621.58
2022-12-14T02:54:27.849Z,97612.88
2022-12-14T02:57:05.218Z,97620.38
2022-12-14T02:59:39.017Z,97631.27
2022-12-14T03:02:14.873Z,97630.13
2022-12-14T03:04:51.677Z,97622.63
2022-12-14T03:07:39.492Z,97626.73
2022-12-14T03:10:20.888Z,97632.33
2022-12-14T03:12:57.839Z,97612.53
2022-12-14T03:15:34.469Z,97606.48
2022-12-14T03:20:56.847Z,97606.07
2022-12-14T03:23:32.989Z,97599.09
2022-12-14T03:26:10.479Z,97580.68
2022-12-14T03:28:49.327Z,97577.73
2022-12-14T03:31:42.643Z,97576.61
2022-12-14T03:34:27.228Z,97572.35
2022-12-14T03:37:03.250Z,97585.09
2022-12-14T03:39:38.749Z,97576.27
2022-12-14T03:42:15.765Z,97575.22
2022-12-14T03:44:52.560Z,97572.81
2022-12-14T03:47:36.403Z,97579.65
2022-12-14T03:50:12.708Z,97575.36
2022-12-14T03:52:51.780Z,97571.17
2022-12-14T03:55:31.657Z,97572.22
2022-12-14T03:58:39.527Z,97566.31
2022-12-14T04:01:16.709Z,97570.01
2022-12-14T04:03:56.029Z,97566.70
2022-12-14T04:06:42.649Z,97568.45
2022-12-14T04:09:30.864Z,97569.49
2022-12-14T04:12:26.795Z,97584.45
2022-12-14T04:15:26.396Z,97589.49
2022-12-14T04:18:38.634Z,97579.86
2022-12-14T04:24:21.709Z,97560.41
2022-12-14T04:26:58.490Z,97555.48
2022-12-14T04:29:54.238Z,97558.78
2022-12-14T04:32:48.582Z,97557.09
2022-12-14T04:35:24.836Z,97553.58
2022-12-14T04:38:01.704Z,97552.64
2022-12-14T04:40:46.547Z,97547.30
2022-12-14T04:51:19.348Z,97553.98
2022-12-14T04:53:59.987Z,97560.28
2022-12-14T04:56:35.974Z,97558.67
2022-12-14T04:59:12.443Z,97560.03
2022-12-14T05:01:52.180Z,97555.83
2022-12-14T05:05:01.231Z,97556.48
2022-12-14T05:07:48.971Z,97566.88
2022-12-14T05:10:29.743Z,97563.47
2022-12-14T05:13:16.378Z,97561.03
2022-12-14T05:15:53.964Z,97557.98
2022-12-14T05:18:27.304Z,97557.38
2022-12-14T05:21:00.194Z,97560.13
2022-12-14T05:23:33.049Z,97560.36
2022-12-14T05:26:06.188Z,97560.28
2022-12-14T05:28:39.053Z,97561.11
2022-12-14T05:31:12.194Z,97557.47
2022-12-14T05:33:45.147Z,97552.19
2022-12-14T05:36:19.799Z,97558.22
2022-12-14T05:38:52.557Z,97561.81
2022-12-14T05:41:25.440Z,97562.83
2022-12-14T05:43:58.356Z,97552.12
2022-12-14T05:46:31.310Z,97552.35
2022-12-14T05:49:04.470Z,97559.53
2022-12-14T05:51:37.274Z,97555.52
2022-12-14T05:54:10.137Z,97549.62
2022-12-14T05:56:46.914Z,97554.58
2022-12-14T05:59:20.926Z,97548.68
2022-12-14T06:02:05.862Z,97548.91
2022-12-14T06:04:39.980Z,97545.88
2022-12-14T06:07:15.363Z,97542.75
2022-12-14T06:09:48.716Z,97540.88
2022-12-14T06:12:21.600Z,97544.13
2022-12-14T06:14:54.493Z,97550.22
2022-12-14T06:17:27.598Z,97547.85
2022-12-14T06:20:00.752Z,97540.44
2022-12-14T06:22:34.105Z,97542.36
2022-12-14T06:25:07.989Z,97542.62
2022-12-14T06:27:40.909Z,97544.46
2022-12-14T06:30:16.400Z,97539.31
2022-12-14T06:32:49.211Z,97541.10
2022-12-14T06:35:22.270Z,97542.89
2022-12-14T06:37:55.218Z,97547.16
2022-12-14T06:40:31.083Z,97554.13
2022-12-14T06:43:04.375Z,97555.97
2022-12-14T06:45:37.528Z,97556.81
2022-12-14T06:48:10.418Z,97565.14
2022-12-14T06:50:43.383Z,97566.81
2022-12-14T06:53:16.390Z,97577.77
2022-12-14T06:55:49.393Z,97576.92
2022-12-14T06:58:22.377Z,97583.59
2022-12-14T07:00:55.280Z,97580.95
2022-12-14T07:03:28.500Z,97596.25
2022-12-14T07:06:02.888Z,97591.81
2022-12-14T07:08:39.039Z,97595.31
2022-12-14T07:11:14.724Z,97593.80
2022-12-14T07:13:48.844Z,97593.09
2022-12-14T07:16:24.037Z,97583.05
2022-12-14T07:18:57.907Z,97591.79
2022-12-14T07:21:30.796Z,97592.98
2022-12-14T07:24:03.948Z,97591.52
2022-12-14T07:26:38.013Z,97600.23
2022-12-14T07:29:12.204Z,97574.31
2022-12-14T07:31:49.458Z,97604.89
2022-12-14T07:34:20.112Z,97614.64
2022-12-14T07:36:54.117Z,97613.16
2022-12-14T07:39:28.382Z,97619.41
2022-12-14T07:42:01.238Z,97628.09
2022-12-14T07:44:35.114Z,97635.76
2022-12-14T07:47:11.435Z,97637.63
2022-12-14T07:49:43.495Z,97627.58
2022-12-14T07:52:16.956Z,97631.67
2022-12-14T07:54:49.918Z,97640.06
2022-12-14T08:00:05.786Z,97625.02
2022-12-14T08:02:40.360Z,97633.92
2022-12-14T08:05:13.644Z,97637.03
2022-12-14T08:07:46.574Z,97634.31
2022-12-14T08:10:19.727Z,97646.36
2022-12-14T08:12:53.378Z,97646.70
2022-12-14T08:15:26.334Z,97651.90
2022-12-14T08:17:59.273Z,97644.70
2022-12-14T08:20:32.403Z,97648.33
2022-12-14T08:25:40.119Z,97656.20
2022-12-14T08:28:13.130Z,97660.58
2022-12-14T08:30:46.047Z,97665.73
2022-12-14T08:33:19.222Z,97662.67
2022-12-14T08:38:35.017Z,97669.57
2022-12-14T08:41:09.940Z,97667.47
2022-12-14T08:43:43.848Z,97670.03
2022-12-14T08:46:16.925Z,97670.80
2022-12-14T08:48:52.490Z,97677.69
2022-12-14T08:51:27.030Z,97676.21
2022-12-14T08:53:59.919Z,97672.08
2022-12-14T08:56:33.117Z,97687.45
2022-12-14T08:59:07.735Z,97690.14
2022-12-14T09:01:40.871Z,97701.26
2022-12-14T09:04:13.912Z,97701.88
2022-12-14T09:06:46.836Z,97710.14
2022-12-14T09:09:19.744Z,97721.06
2022-12-14T09:11:52.707Z,97720.03
2022-12-14T09:14:25.783Z,97723.79
2022-12-14T09:16:59.138Z,97727.63
2022-12-14T09:19:32.440Z,97732.50
2022-12-14T09:22:18.643Z,97739.95
2022-12-14T09:24:53.572Z,97738.22
2022-12-14T09:27:27.539Z,97739.95
2022-12-14T09:30:00.692Z,97740.30
2022-12-14T09:32:50.614Z,97741.43
2022-12-14T09:35:23.023Z,97751.07
2022-12-14T09:37:55.917Z,97752.97
2022-12-14T09:40:32.153Z,97753.14
2022-12-14T09:43:09.600Z,97760.72
2022-12-14T09:45:45.451Z,97761.38
2022-12-14T09:48:22.455Z,97769.63
2022-12-14T09:50:56.927Z,97763.47
2022-12-14T09:53:30.646Z,97779.39
2022-12-14T09:56:04.445Z,97776.73
2022-12-14T09:58:39.338Z,97789.50
2022-12-14T10:01:18.695Z,97796.27
2022-12-14T10:03:56.173Z,97810.59
2022-12-14T10:06:31.655Z,97811.30
2022-12-14T10:09:09.842Z,97818.34
2022-12-14T10:11:47.009Z,97813.52
2022-12-14T10:14:25.941Z,97822.90
2022-12-14T10:17:02.134Z,97826.39
2022-12-14T10:19:40.726Z,97838.41
2022-12-14T10:22:17.154Z,97835.91
2022-12-14T10:24:55.327Z,97834.30
2022-12-14T10:27:47.701Z,97841.11
2022-12-14T10:30:08.852Z,97849.72
2022-12-14T10:32:45.326Z,97850.02
2022-12-14T10:35:21.136Z,97857.77
2022-12-14T10:37:57.868Z,97849.44
2022-12-14T10:40:35.690Z,97860.52
2022-12-14T10:43:16.421Z,97871.72
2022-12-14T10:45:52.850Z,97879.44
2022-12-14T10:48:45.308Z,97888.85
2022-12-14T10:51:22.521Z,97891.51
2022-12-14T10:53:58.567Z,97897.48
2022-12-14T10:56:34.236Z,97904.28
2022-12-14T10:59:35.083Z,97917.16
2022-12-14T11:02:08.295Z,97923.16
2022-12-14T11:04:45.628Z,97916.30
2022-12-14T11:07:20.760Z,97939.34
2022-12-14T11:09:54.122Z,97936.04
2022-12-14T11:12:28.855Z,97951.31
2022-12-14T11:15:04.105Z,97950.52
2022-12-14T11:17:40.520Z,97959.92
2022-12-14T11:20:26.443Z,97969.25
2022-12-14T11:23:01.844Z,97976.86
2022-12-14T11:25:41.935Z,97981.92
2022-12-14T11:28:31.275Z,97984.12
2022-12-14T11:31:05.283Z,98006.00
2022-12-14T11:33:41.607Z,98010.85
2022-12-14T11:36:25.648Z,98010.85
2022-12-14T11:39:00.126Z,98017.45
2022-12-14T11:44:26.946Z,98016.50
2022-12-14T11:47:05.236Z,98048.64
2022-12-14T11:49:45.691Z,98058.16
2022-12-14T11:52:20.799Z,98047.09
2022-12-14T11:55:12.466Z,98075.13
2022-12-14T11:57:50.475Z,98088.01
2022-12-14T12:00:29.340Z,98077.84
2022-12-14T12:03:06.751Z,98103.27
2022-12-14T12:05:45.073Z,98101.41
2022-12-14T12:08:25.365Z,98115.83
2022-12-14T12:11:02.282Z,98101.45
2022-12-14T12:13:39.209Z,98134.66
2022-12-14T12:16:18.657Z,98126.19
2022-12-14T12:18:54.529Z,98129.43
2022-12-14T12:21:31.851Z,98150.78
2022-12-14T12:24:08.589Z,98152.41
2022-12-14T12:26:49.876Z,98156.69
2022-12-14T12:29:23.497Z,98152.14
2022-12-14T12:32:00.375Z,98166.72
2022-12-14T12:34:36.485Z,98165.58
2022-12-14T12:37:28.050Z,98183.05
2022-12-14T12:42:35.914Z,98197.28
2022-12-14T12:45:14.043Z,98204.02
2022-12-14T12:47:50.425Z,98214.83
2022-12-14T12:50:26.055Z,98224.61
2022-12-14T12:53:03.956Z,98233.55
2022-12-14T12:55:39.608Z,98240.05
2022-12-14T12:58:16.934Z,98244.71
2022-12-14T13:00:55.684Z,98257.16
2022-12-14T13:03:32.557Z,98253.00
2022-12-14T13:06:10.233Z,98266.60
2022-12-14T13:08:45.193Z,98268.70
2022-12-14T13:11:27.013Z,98267.53
2022-12-14T13:14:00.660Z,98276.47
2022-12-14T13:16:36.407Z,98289.03
2022-12-14T13:19:48.137Z,98300.52
2022-12-14T13:21:51.325Z,98303.72
2022-12-14T13:24:25.168Z,98311.22
2022-12-14T13:27:29.536Z,98315.20
2022-12-14T13:30:16.479Z,98321.72
2022-12-14T13:32:57.379Z,98332.52
2022-12-14T13:38:35.775Z,98337.78
2022-12-14T13:41:17.567Z,98356.71
2022-12-14T13:44:04.930Z,98361.58
2022-12-14T13:46:38.222Z,98380.97
2022-12-14T13:49:17.952Z,98381.84
2022-12-14T13:51:52.976Z,98380.19
2022-12-14T13:54:31.291Z,98354.13
2022-12-14T13:57:08.046Z,98390.60
2022-12-14T13:59:43.482Z,98392.52
2022-12-14T14:02:42.282Z,98400.67
2022-12-14T14:05:41.109Z,98401.80
2022-12-14T14:08:36.052Z,98396.22
2022-12-14T14:11:41.308Z,98409.28
2022-12-14T14:14:23.094Z,98415.65
2022-12-14T14:17:00.747Z,98421.08
2022-12-14T14:19:33.893Z,98424.81
2022-12-14T14:22:23.446Z,98428.48
2022-12-14T14:24:59.402Z,98435.41
2022-12-14T14:27:39.706Z,98443.39
2022-12-14T14:30:28.947Z,98440.98
2022-12-14T14:33:36.311Z,98452.16
2022-12-14T14:35:39.067Z,98443.61
2022-12-14T14:38:22.548Z,98447.05
2022-12-14T14:41:16.196Z,98453.09
2022-12-14T14:43:35.934Z,98464.26
2022-12-14T14:46:13.597Z,98465.38
2022-12-14T14:48:53.477Z,98468.07
2022-12-14T14:51:31.278Z,98477.73
2022-12-14T14:55:11.026Z,98485.68
2022-12-14T14:57:07.705Z,98483.45
2022-12-14T14:59:51.101Z,98488.55
2022-12-14T15:02:31.489Z,98495.48
2022-12-14T15:07:43.665Z,98510.33
2022-12-14T15:10:22.861Z,98514.71
2022-12-14T15:13:08.799Z,98521.47
2022-12-14T15:18:27.458Z,98513.66
2022-12-14T15:21:04.306Z,98521.64
2022-12-14T15:23:40.214Z,98542.20
2022-12-14T15:26:17.584Z,98533.69
2022-12-14T15:28:52.946Z,98536.45
2022-12-14T15:31:32.980Z,98552.73
2022-12-14T15:34:06.110Z,98545.08
2022-12-14T15:36:42.228Z,98551.30
2022-12-14T15:39:33.888Z,98550.33
2022-12-14T15:42:12.395Z,98548.74
2022-12-14T15:44:53.018Z,98563.02
2022-12-14T15:47:29.472Z,98558.16
2022-12-14T15:50:19.736Z,98574.19
2022-12-14T15:55:41.810Z,98575.84
2022-12-14T15:58:18.868Z,98574.89
2022-12-14T16:00:54.183Z,98580.48
2022-12-14T16:03:31.177Z,98581.42
2022-12-14T16:06:06.062Z,98601.84
2022-12-14T16:08:41.309Z,98593.39
2022-12-14T16:17:08.046Z,98612.38
2022-12-14T16:19:58.497Z,98617.65
2022-12-14T16:22:25.506Z,98624.33
2022-12-14T16:25:17.144Z,98631.84
2022-12-14T16:27:52.204Z,98622.34
2022-12-14T16:30:31.760Z,98635.89
2022-12-14T16:33:15.200Z,98627.19
2022-12-14T16:35:51.540Z,98634.84
2022-12-14T16:38:25.595Z,98643.22
2022-12-14T16:41:01.172Z,98638.03
2022-12-14T16:43:37.270Z,98646.48
2022-12-14T16:46:18.832Z,98647.30
2022-12-14T16:49:20.875Z,98652.41
2022-12-14T16:52:07.711Z,98656.53
2022-12-14T16:54:38.671Z,98666.58
2022-12-14T16:57:23.411Z,98674.84
2022-12-14T17:00:00.757Z,98670.00
2022-12-14T17:02:38.511Z,98670.08
2022-12-14T17:05:17.818Z,98676.38
2022-12-14T17:07:51.348Z,98682.46
2022-12-14T17:10:26.974Z,98705.66
2022-12-14T17:13:01.787Z,98693.08
2022-12-14T17:15:36.585Z,98695.00
2022-12-14T17:18:11.296Z,98696.91
2022-12-14T17:20:44.161Z,98708.88
2022-12-14T17:23:19.273Z,98719.25
2022-12-14T17:25:52.278Z,98704.12
2022-12-14T17:28:28.967Z,98714.33
2022-12-14T17:31:03.763Z,98716.05
2022-12-14T17:33:38.361Z,98709.22
2022-12-14T17:36:11.665Z,98719.58
2022-12-14T17:38:44.835Z,98719.02
2022-12-14T17:41:21.314Z,98734.19
2022-12-14T17:43:57.258Z,98738.42
2022-12-14T17:46:30.769Z,98731.38
2022-12-14T17:49:06.607Z,98744.32
2022-12-14T17:51:42.284Z,98735.05
2022-12-14T17:54:22.439Z,98730.66
2022-12-14T17:56:54.259Z,98729.80
2022-12-14T17:59:28.168Z,98737.53
2022-12-14T18:02:01.215Z,98733.33
2022-12-14T18:07:49.703Z,98746.88
2022-12-14T18:16:17.249Z,98759.77
2022-12-14T18:18:50.213Z,98759.09
2022-12-14T18:21:26.411Z,98760.66
2022-12-14T18:24:56.104Z,98784.25
2022-12-14T18:28:08.265Z,98777.15
2022-12-14T18:30:49.851Z,98796.84
2022-12-14T18:33:25.419Z,98797.31
2022-12-14T18:35:59.462Z,98802.83
2022-12-14T18:38:32.826Z,98797.30
2022-12-14T18:41:06.585Z,98801.44
2022-12-14T18:43:44.132Z,98810.30
2022-12-14T18:46:17.711Z,98815.06
2022-12-14T18:48:51.307Z,98808.03
2022-12-14T18:51:26.999Z,98819.79
2022-12-14T18:54:02.369Z,98822.59
2022-12-14T18:56:35.296Z,98824.64
2022-12-14T18:59:08.303Z,98818.92
2022-12-14T19:01:42.464Z,98837.14
2022-12-14T19:04:15.717Z,98845.94
2022-12-14T19:06:53.786Z,98831.50
2022-12-14T19:09:26.771Z,98844.34
2022-12-14T19:11:59.827Z,98842.06
2022-12-14T19:14:33.708Z,98845.69
2022-12-14T19:17:08.378Z,98846.63
2022-12-14T19:19:44.662Z,98851.93
2022-12-14T19:22:18.019Z,98858.52
2022-12-14T19:24:52.668Z,98877.85
2022-12-14T19:27:58.912Z,98872.59
2022-12-14T19:30:02.248Z,98870.82
2022-12-14T19:32:41.325Z,98885.05
2022-12-14T19:35:22.084Z,98885.66
2022-12-14T19:37:56.677Z,98887.93
2022-12-14T19:40:30.775Z,98892.08
2022-12-14T19:43:06.021Z,98897.95
2022-12-14T19:45:41.294Z,98892.77
2022-12-14T19:48:20.539Z,98897.88
2022-12-14T19:50:53.810Z,98907.17
2022-12-14T19:53:36.583Z,98912.47
2022-12-14T19:56:13.601Z,98923.54
2022-12-14T19:58:47.803Z,98935.50
2022-12-14T20:01:23.146Z,98938.92
2022-12-14T20:03:56.431Z,98948.34
2022-12-14T20:06:31.827Z,98947.38
2022-12-14T20:09:07.102Z,98952.74
2022-12-14T20:11:42.629Z,98958.91
2022-12-14T20:14:16.324Z,98956.28
2022-12-14T20:16:52.240Z,98957.35
2022-12-14T20:19:25.701Z,98953.98
2022-12-14T20:22:00.203Z,98968.51
2022-12-14T20:24:33.087Z,98968.71
2022-12-14T20:27:06.087Z,98983.11
2022-12-14T20:29:49.058Z,98991.84
2022-12-14T20:32:21.887Z,98991.84
2022-12-14T20:34:54.759Z,98986.73
2022-12-14T20:37:27.754Z,98992.70
2022-12-14T20:40:03.319Z,98994.21
2022-12-14T20:42:36.320Z,98993.05
2022-12-14T20:45:10.996Z,99003.73
2022-12-14T20:47:46.961Z,98997.39
2022-12-14T20:50:20.019Z,98990.14
2022-12-14T20:52:52.880Z,99011.73
2022-12-14T20:55:25.734Z,98992.34
2022-12-14T20:57:58.827Z,99001.09
2022-12-14T21:00:31.819Z,99009.25
2022-12-14T21:03:05.285Z,99011.58
2022-12-14T21:05:42.787Z,99025.09
2022-12-14T21:08:16.358Z,99036.09
2022-12-14T21:10:49.251Z,99041.19
2022-12-14T21:13:22.188Z,99046.84
2022-12-14T21:15:55.162Z,99043.34
2022-12-14T21:18:28.067Z,99050.20
2022-12-14T21:21:04.359Z,99054.39
2022-12-14T21:23:37.482Z,99052.34
2022-12-14T21:26:10.659Z,99052.81
2022-12-14T21:28:43.578Z,99051.76
2022-12-14T21:31:16.792Z,99056.76
2022-12-14T21:33:51.475Z,99055.67
2022-12-14T21:36:24.310Z,99067.41
2022-12-14T21:38:59.973Z,99065.77
2022-12-14T21:41:50.982Z,99064.58
2022-12-14T21:44:23.894Z,99064.45
2022-12-14T21:46:56.847Z,99073.45
2022-12-14T21:49:29.987Z,99071.48
2022-12-14T21:52:07.206Z,99067.98
2022-12-14T21:54:40.303Z,99061.98
2022-12-14T21:57:34.133Z,99066.20
2022-12-14T22:00:10.005Z,99077.36
2022-12-14T22:02:45.809Z,99076.17
2022-12-14T22:05:19.189Z,99083.94
2022-12-14T22:07:52.737Z,99086.58
2022-12-14T22:10:25.623Z,99080.48
2022-12-14T22:12:58.569Z,99091.44
2022-12-14T22:15:31.617Z,99088.90
2022-12-14T22:18:04.672Z,99088.90
2022-12-14T22:20:37.557Z,99096.53
2022-12-14T22:23:10.472Z,99094.21
2022-12-14T22:25:50.758Z,99095.17
2022-12-14T22:28:23.627Z,99105.58
2022-12-14T22:30:56.484Z,99111.86
2022-12-14T22:33:30.649Z,99109.05
2022-12-14T22:36:03.844Z,99106.30
2022-12-14T22:38:36.701Z,99108.57
2022-12-14T22:41:10.370Z,99114.17
2022-12-14T22:43:44.461Z,99113.70
2022-12-14T22:46:18.032Z,99133.19
2022-12-14T22:48:50.931Z,99128.99
2022-12-14T22:51:25.444Z,99147.79
2022-12-14T22:53:59.465Z,99148.20
2022-12-14T22:56:35.923Z,99146.42
2022-12-14T22:59:11.961Z,99144.88
2022-12-14T23:01:50.153Z,99139.87
2022-12-14T23:04:21.096Z,99140.73
2022-12-14T23:06:55.349Z,99151.71
2022-12-14T23:09:46.094Z,99155.66
2022-12-14T23:12:36.565Z,99160.26
2022-12-14T23:15:28.493Z,99158.02
2022-12-14T23:18:22.566Z,99161.53
2022-12-14T23:21:13.739Z,99169.27
2022-12-14T23:24:05.278Z,99168.40
2022-12-14T23:26:56.138Z,99160.16
2022-12-14T23:29:47.480Z,99176.05
2022-12-14T23:32:38.015Z,99170.55
2022-12-14T23:35:29.193Z,99164.27
2022-12-14T23:38:24.936Z,99160.53
2022-12-14T23:41:19.539Z,99166.81
2022-12-14T23:44:10.151Z,99173.86
2022-12-14T23:47:00.949Z,99182.86
2022-12-14T23:49:51.371Z,99180.89
2022-12-14T23:52:41.865Z,99173.84
2022-12-14T23:55:48.290Z,99181.25
2022-12-14T23:58:43.616Z,99185.48
